Time;durP1;ratioP1;P1;durP2;ratioP2;P2;SDS_P1;SDS_P2;PMS_P1;PMS_P2;Temp;Humidity;BMP_temperature;BMP_pressure;BME280_temperature;BME280_humidity;BME280_pressure;Samples;Min_cycle;Max_cycle;Signal;HPM_P1;HPM_P2
2023/05/04 00:01:38;;;;;;;28.77;19.95;;;13.20;99.90;;;;;;5009182;28;20038;-74
2023/05/04 00:04:05;;;;;;;24.88;19.48;;;13.20;99.90;;;;;;4992451;28;20061;-75
2023/05/04 00:06:33;;;;;;;25.67;19.63;;;13.10;99.90;;;;;;5008734;28;20414;-76
2023/05/04 00:09:00;;;;;;;24.92;19.33;;;13.10;99.90;;;;;;5009876;28;20434;-76
2023/05/04 00:11:30;;;;;;;30.17;19.98;;;13.10;99.90;;;;;;4992406;28;20065;-75
2023/05/04 00:13:57;;;;;;;33.58;22.98;;;13.00;99.90;;;;;;5009220;28;20089;-77
2023/05/04 00:16:25;;;;;;;29.05;21.73;;;13.00;99.90;;;;;;5008723;28;20042;-76
2023/05/04 00:18:53;;;;;;;27.17;20.05;;;13.10;99.90;;;;;;5009242;28;20049;-75
2023/05/04 00:21:20;;;;;;;28.73;20.33;;;13.00;99.90;;;;;;5008934;28;20046;-77
2023/05/04 00:23:47;;;;;;;28.65;21.63;;;13.10;99.90;;;;;;4991167;28;20033;-75
2023/05/04 00:26:15;;;;;;;31.70;22.15;;;13.00;99.90;;;;;;5009475;28;20042;-76
2023/05/04 00:28:45;;;;;;;33.03;24.08;;;13.00;99.90;;;;;;4992264;28;20053;-76
2023/05/04 00:31:13;;;;;;;38.55;24.77;;;13.00;99.90;;;;;;5009815;28;20137;-76
2023/05/04 00:33:41;;;;;;;38.53;25.98;;;13.00;99.90;;;;;;4991712;28;20061;-75
2023/05/04 00:36:09;;;;;;;31.55;23.33;;;13.00;99.90;;;;;;4991777;28;20465;-74
2023/05/04 00:38:48;;;;;;;37.25;23.92;;;13.00;99.90;;;;;;5009013;28;20156;-76
2023/05/04 00:41:15;;;;;;;31.13;22.38;;;13.10;99.90;;;;;;5008762;28;20571;-76
2023/05/04 00:43:43;;;;;;;33.08;22.95;;;13.10;99.90;;;;;;5009553;28;20513;-75
2023/05/04 00:46:13;;;;;;;38.22;24.80;;;13.20;99.90;;;;;;5009455;28;20046;-76
2023/05/04 00:48:41;;;;;;;35.03;23.55;;;13.10;99.90;;;;;;5020492;28;20041;-76
2023/05/04 00:51:10;;;;;;;37.35;24.80;;;13.20;99.90;;;;;;5020361;28;20061;-75
2023/05/04 00:53:39;;;;;;;32.85;24.25;;;13.20;99.90;;;;;;5015905;28;20057;-74
2023/05/04 00:56:07;;;;;;;31.92;22.48;;;13.20;99.90;;;;;;5009966;28;20148;-77
2023/05/04 00:58:36;;;;;;;34.10;22.95;;;13.20;99.90;;;;;;4993154;28;20544;-77
2023/05/04 01:01:03;;;;;;;35.67;25.83;;;13.20;99.90;;;;;;5009626;28;20052;-77
2023/05/04 01:03:33;;;;;;;39.63;25.80;;;13.20;99.90;;;;;;5009643;28;20402;-75
2023/05/04 01:06:12;;;;;;;39.83;26.30;;;13.20;99.90;;;;;;5008534;28;20124;-74
2023/05/04 01:08:45;;;;;;;38.92;26.58;;;13.30;99.90;;;;;;5008983;28;20046;-77
2023/05/04 01:11:20;;;;;;;39.17;25.33;;;13.30;99.90;;;;;;4994358;28;20046;-74
2023/05/04 01:13:49;;;;;;;38.03;27.13;;;13.20;99.90;;;;;;5011231;28;20411;-76
2023/05/04 01:16:17;;;;;;;33.03;24.15;;;13.30;99.90;;;;;;5010007;28;20322;-75
2023/05/04 01:18:46;;;;;;;32.17;23.48;;;13.30;99.90;;;;;;5009469;28;20038;-76
2023/05/04 01:21:14;;;;;;;44.33;27.73;;;13.30;99.90;;;;;;5008647;28;20539;-76
2023/05/04 01:23:43;;;;;;;40.13;26.90;;;13.30;99.90;;;;;;5008734;28;20050;-76
2023/05/04 01:26:17;;;;;;;39.67;26.50;;;13.30;99.90;;;;;;5009297;28;20049;-77
2023/05/04 01:28:49;;;;;;;46.10;26.45;;;13.30;99.90;;;;;;5007745;28;20128;-75
2023/05/04 01:31:20;;;;;;;33.83;23.80;;;13.30;99.90;;;;;;4989981;28;20041;-76
2023/05/04 01:33:49;;;;;;;39.30;23.70;;;13.30;99.90;;;;;;5008060;28;20065;-77
2023/05/04 01:36:17;;;;;;;37.45;26.17;;;13.30;99.90;;;;;;5006806;28;20117;-74
2023/05/04 01:38:47;;;;;;;42.53;28.15;;;13.30;99.90;;;;;;5007967;28;20044;-75
2023/05/04 01:41:15;;;;;;;35.40;25.55;;;13.40;99.90;;;;;;5007993;28;20045;-76
2023/05/04 01:43:43;;;;;;;39.22;27.38;;;13.40;99.90;;;;;;4990497;28;20116;-76
2023/05/04 01:46:11;;;;;;;39.15;27.30;;;13.40;99.90;;;;;;5007703;28;20066;-75
2023/05/04 01:48:39;;;;;;;37.30;25.95;;;13.40;99.90;;;;;;4990245;28;20041;-76
2023/05/04 01:51:06;;;;;;;40.85;27.98;;;13.30;99.90;;;;;;5008068;28;20050;-75
2023/05/04 01:53:34;;;;;;;42.30;29.02;;;13.40;99.90;;;;;;4991561;28;20112;-76
2023/05/04 01:56:04;;;;;;;40.90;27.23;;;13.30;99.90;;;;;;4991640;28;20042;-77
2023/05/04 01:58:32;;;;;;;41.63;27.38;;;13.30;99.90;;;;;;4990588;28;20482;-76
2023/05/04 02:00:59;;;;;;;36.72;26.25;;;13.30;99.90;;;;;;5025300;23;20500;-73
2023/05/04 02:03:28;;;;;;;34.70;25.58;;;13.20;99.90;;;;;;4992231;28;20498;-73
2023/05/04 02:05:56;;;;;;;40.97;26.73;;;13.30;99.90;;;;;;4991195;28;20545;-74
2023/05/04 02:08:23;;;;;;;37.38;26.52;;;13.30;99.90;;;;;;4991608;28;20076;-73
2023/05/04 02:10:51;;;;;;;36.40;26.77;;;13.20;99.90;;;;;;5006886;28;20379;-74
2023/05/04 02:13:20;;;;;;;42.78;27.70;;;13.30;99.90;;;;;;4990589;28;20042;-73
2023/05/04 02:15:47;;;;;;;35.80;24.88;;;13.20;99.90;;;;;;4993965;28;20464;-74
2023/05/04 02:18:15;;;;;;;36.35;26.27;;;13.20;99.90;;;;;;4993952;28;20040;-75
2023/05/04 02:20:42;;;;;;;37.33;24.80;;;13.20;99.90;;;;;;5010834;28;20042;-73
2023/05/04 02:23:10;;;;;;;37.33;25.95;;;13.20;99.90;;;;;;5013668;28;20045;-75
2023/05/04 02:25:40;;;;;;;32.47;24.08;;;13.20;99.90;;;;;;5013766;28;20034;-75
2023/05/04 02:28:09;;;;;;;38.13;24.90;;;13.20;99.90;;;;;;4995108;28;20100;-73
2023/05/04 02:30:39;;;;;;;36.50;24.92;;;13.20;99.90;;;;;;5010880;28;20141;-74
2023/05/04 02:33:06;;;;;;;35.17;23.40;;;13.10;99.90;;;;;;5011607;28;20044;-74
2023/05/04 02:35:34;;;;;;;32.85;24.13;;;13.10;99.90;;;;;;4994447;28;20038;-73
2023/05/04 02:38:01;;;;;;;35.70;23.33;;;13.10;99.90;;;;;;5010138;28;20042;-73
2023/05/04 02:40:29;;;;;;;35.80;24.17;;;13.10;99.90;;;;;;5010984;28;20145;-74
2023/05/04 02:42:57;;;;;;;32.60;23.02;;;13.10;99.90;;;;;;5009935;28;20042;-73
2023/05/04 02:45:24;;;;;;;31.10;22.20;;;13.10;99.90;;;;;;5011395;28;20496;-74
2023/05/04 02:47:53;;;;;;;28.83;22.67;;;13.10;99.90;;;;;;5010937;28;20044;-76
2023/05/04 02:50:22;;;;;;;30.15;22.35;;;13.10;99.90;;;;;;5013984;28;20572;-75
2023/05/04 02:52:49;;;;;;;26.60;20.02;;;13.10;99.90;;;;;;5000017;28;20112;-73
2023/05/04 02:55:17;;;;;;;31.83;20.75;;;13.00;99.90;;;;;;5013745;28;20044;-75
2023/05/04 02:57:44;;;;;;;31.98;20.08;;;13.00;99.90;;;;;;4999834;28;20038;-75
2023/05/04 03:00:12;;;;;;;31.23;20.05;;;13.00;99.90;;;;;;5015996;28;20045;-74
2023/05/04 03:02:40;;;;;;;28.50;19.60;;;13.00;99.90;;;;;;4993162;28;20069;-74
2023/05/04 03:05:09;;;;;;;25.13;18.98;;;13.00;99.90;;;;;;5009983;28;20068;-73
2023/05/04 03:07:37;;;;;;;33.88;20.92;;;13.00;99.90;;;;;;5014349;28;20050;-73
2023/05/04 03:10:05;;;;;;;27.65;19.08;;;13.10;99.90;;;;;;5011747;28;20513;-74
2023/05/04 03:12:33;;;;;;;34.55;18.92;;;13.10;99.90;;;;;;5010769;28;20046;-74
2023/05/04 03:15:00;;;;;;;30.30;20.33;;;13.10;99.90;;;;;;4992670;28;20042;-74
2023/05/04 03:17:28;;;;;;;32.42;19.85;;;13.10;99.90;;;;;;4991941;28;20042;-73
2023/05/04 03:19:56;;;;;;;26.20;18.27;;;13.00;99.90;;;;;;4992584;28;20121;-72
2023/05/04 03:22:28;;;;;;;25.25;17.23;;;13.00;99.90;;;;;;4992618;28;20095;-75
2023/05/04 03:24:56;;;;;;;25.10;17.80;;;13.00;99.90;;;;;;5026591;28;20034;-74
2023/05/04 03:27:23;;;;;;;29.58;18.92;;;12.90;99.90;;;;;;5034810;28;20052;-74
2023/05/04 03:29:51;;;;;;;26.52;19.35;;;12.90;99.90;;;;;;5034025;28;20388;-73
2023/05/04 03:32:19;;;;;;;27.15;18.63;;;12.80;99.90;;;;;;5008226;28;20034;-74
2023/05/04 03:34:47;;;;;;;23.90;18.10;;;12.80;99.90;;;;;;4992558;28;20046;-73
2023/05/04 03:37:15;;;;;;;25.30;18.40;;;12.70;99.90;;;;;;5009057;28;20060;-72
2023/05/04 03:39:44;;;;;;;22.80;18.00;;;12.60;99.90;;;;;;5011053;28;20030;-73
2023/05/04 03:42:12;;;;;;;25.20;18.23;;;12.60;99.90;;;;;;5010028;28;20133;-75
2023/05/04 03:44:39;;;;;;;27.80;18.83;;;12.60;99.90;;;;;;5010337;28;20096;-73
2023/05/04 03:47:07;;;;;;;24.50;18.40;;;12.60;99.90;;;;;;5010797;28;20038;-73
2023/05/04 03:49:35;;;;;;;27.73;19.65;;;12.50;99.90;;;;;;5009933;28;20050;-74
2023/05/04 03:52:02;;;;;;;29.02;19.50;;;12.50;99.90;;;;;;5010904;28;20056;-74
2023/05/04 03:54:30;;;;;;;25.10;20.08;;;12.60;99.90;;;;;;5024493;28;20050;-74
2023/05/04 03:57:00;;;;;;;26.80;19.65;;;12.60;99.90;;;;;;5017303;28;20034;-75
2023/05/04 03:59:28;;;;;;;27.33;19.75;;;12.60;99.90;;;;;;5024176;28;20042;-73
2023/05/04 04:01:55;;;;;;;29.15;20.45;;;12.60;99.90;;;;;;5008617;28;20069;-74
2023/05/04 04:04:23;;;;;;;30.20;19.33;;;12.60;99.90;;;;;;5009753;28;20092;-73
2023/05/04 04:06:51;;;;;;;30.83;21.58;;;12.70;99.90;;;;;;4992542;28;20042;-73
2023/05/04 04:09:20;;;;;;;33.20;21.85;;;12.70;99.90;;;;;;4993735;28;20045;-74
2023/05/04 04:11:47;;;;;;;31.50;21.60;;;12.80;99.90;;;;;;4992213;28;20081;-74
2023/05/04 04:14:16;;;;;;;32.33;23.40;;;12.80;99.90;;;;;;5010971;28;20045;-74
2023/05/04 04:16:43;;;;;;;30.80;22.83;;;12.90;99.90;;;;;;5009958;28;20054;-74
2023/05/04 04:19:11;;;;;;;38.88;23.98;;;12.90;99.90;;;;;;5016667;28;20112;-75
2023/05/04 04:21:38;;;;;;;33.75;23.65;;;12.90;99.90;;;;;;5010204;28;20038;-74
2023/05/04 04:24:06;;;;;;;31.42;22.33;;;13.00;99.90;;;;;;5010684;28;20078;-74
2023/05/04 04:26:34;;;;;;;35.15;21.58;;;13.00;99.90;;;;;;5010052;28;20034;-75
2023/05/04 04:29:02;;;;;;;27.85;21.90;;;13.10;99.90;;;;;;5010318;28;20063;-74
2023/05/04 04:31:30;;;;;;;34.05;21.60;;;13.10;99.90;;;;;;5009951;28;20100;-74
2023/05/04 04:33:58;;;;;;;27.77;20.45;;;13.20;99.90;;;;;;5009933;28;20056;-75
2023/05/04 04:36:25;;;;;;;34.30;21.63;;;13.20;99.90;;;;;;5009015;28;20068;-74
2023/05/04 04:38:53;;;;;;;29.48;21.55;;;13.30;99.90;;;;;;5008626;28;20046;-73
2023/05/04 04:41:20;;;;;;;30.10;21.75;;;13.30;99.90;;;;;;5013028;28;20060;-74
2023/05/04 04:43:48;;;;;;;26.42;20.88;;;13.30;99.90;;;;;;5009716;28;20037;-75
2023/05/04 04:46:15;;;;;;;27.70;19.80;;;13.40;99.90;;;;;;5009872;28;20046;-75
2023/05/04 04:48:44;;;;;;;31.55;20.77;;;13.40;99.90;;;;;;5009716;28;20037;-74
2023/05/04 04:51:13;;;;;;;30.40;21.05;;;13.50;99.90;;;;;;5009202;28;20049;-73
2023/05/04 04:53:40;;;;;;;33.60;22.95;;;13.60;99.90;;;;;;5009114;28;20045;-74
2023/05/04 04:56:08;;;;;;;28.75;23.00;;;13.50;99.90;;;;;;5009867;28;20124;-75
2023/05/04 04:58:36;;;;;;;35.15;24.13;;;13.50;99.90;;;;;;5019216;28;20122;-73
2023/05/04 05:01:04;;;;;;;34.42;23.17;;;13.50;99.90;;;;;;5015189;28;20034;-75
2023/05/04 05:03:32;;;;;;;30.38;22.52;;;13.60;99.90;;;;;;5017174;28;20042;-74
2023/05/04 05:06:01;;;;;;;29.70;22.13;;;13.70;99.90;;;;;;5017211;28;20397;-73
2023/05/04 05:08:29;;;;;;;31.98;22.20;;;14.00;99.90;;;;;;5012997;28;20076;-73
2023/05/04 05:11:05;;;;;;;33.20;19.90;;;14.20;99.90;;;;;;4992414;28;20124;-72
2023/05/04 05:13:33;;;;;;;27.80;20.95;;;14.40;99.90;;;;;;5006965;28;20042;-73
2023/05/04 05:16:00;;;;;;;30.90;21.85;;;14.50;99.90;;;;;;5010614;28;20129;-73
2023/05/04 05:18:28;;;;;;;28.23;20.40;;;14.70;99.90;;;;;;5014741;28;20045;-73
2023/05/04 05:20:56;;;;;;;21.88;17.80;;;14.80;99.90;;;;;;5009205;28;20048;-75
2023/05/04 05:23:25;;;;;;;26.52;18.20;;;14.80;99.90;;;;;;5010812;28;20496;-75
2023/05/04 05:25:52;;;;;;;24.20;17.73;;;14.80;99.90;;;;;;5009502;28;20052;-75
2023/05/04 05:28:20;;;;;;;25.15;17.98;;;15.00;99.90;;;;;;5012420;28;20601;-75
2023/05/04 05:30:48;;;;;;;29.52;19.27;;;15.10;99.90;;;;;;5015350;28;20037;-76
2023/05/04 05:33:15;;;;;;;27.85;17.63;;;15.30;99.90;;;;;;5028134;28;20060;-74
2023/05/04 05:35:43;;;;;;;26.73;18.15;;;15.60;99.90;;;;;;5017148;28;20125;-74
2023/05/04 05:38:11;;;;;;;26.48;18.42;;;15.90;99.90;;;;;;5011025;28;20062;-75
2023/05/04 05:40:40;;;;;;;30.33;18.15;;;16.30;99.90;;;;;;5010592;28;20067;-74
2023/05/04 05:43:08;;;;;;;24.30;17.23;;;16.60;99.90;;;;;;5010242;28;20045;-75
2023/05/04 05:45:35;;;;;;;25.38;17.67;;;17.00;99.90;;;;;;5007841;28;20037;-75
2023/05/04 05:48:04;;;;;;;25.65;16.92;;;17.30;99.90;;;;;;5008774;28;20132;-73
2023/05/04 05:50:32;;;;;;;26.65;17.35;;;17.90;99.90;;;;;;5013127;28;20042;-74
2023/05/04 05:52:59;;;;;;;24.30;16.65;;;18.50;99.90;;;;;;5016447;28;20358;-75
2023/05/04 05:55:27;;;;;;;21.63;16.58;;;19.00;99.90;;;;;;5016898;28;20117;-75
2023/05/04 05:57:56;;;;;;;23.75;16.00;;;19.20;99.90;;;;;;5016076;28;20591;-74
2023/05/04 06:00:23;;;;;;;25.17;16.05;;;19.10;99.90;;;;;;5017177;28;20046;-75
2023/05/04 06:02:51;;;;;;;23.00;16.17;;;18.50;99.90;;;;;;5014815;28;20049;-73
2023/05/04 06:05:19;;;;;;;24.58;17.20;;;18.20;99.90;;;;;;5015803;28;20045;-75
2023/05/04 06:07:46;;;;;;;20.73;16.73;;;18.10;99.90;;;;;;5017741;28;20042;-75
2023/05/04 06:10:14;;;;;;;24.77;17.88;;;18.30;99.90;;;;;;5013190;28;20046;-76
2023/05/04 06:12:41;;;;;;;22.20;19.73;;;18.30;99.90;;;;;;4995674;28;20555;-74
2023/05/04 06:15:13;;;;;;;25.92;22.27;;;18.00;99.90;;;;;;5018769;28;20073;-76
2023/05/04 06:17:41;;;;;;;24.25;18.52;;;17.80;99.90;;;;;;5014672;28;20042;-75
2023/05/04 06:20:09;;;;;;;21.83;17.10;;;17.70;99.90;;;;;;4996168;28;20046;-76
2023/05/04 06:22:36;;;;;;;18.95;15.50;;;17.70;99.90;;;;;;5013881;28;20077;-74
2023/05/04 06:25:04;;;;;;;19.20;15.85;;;17.60;99.90;;;;;;5014531;28;20046;-75
2023/05/04 06:27:33;;;;;;;23.35;20.70;;;17.50;99.90;;;;;;4996761;28;20034;-74
2023/05/04 06:30:01;;;;;;;24.98;20.63;;;17.40;99.90;;;;;;5014207;28;20038;-73
2023/05/04 06:32:30;;;;;;;19.75;17.35;;;17.40;99.90;;;;;;5017038;28;20486;-74
2023/05/04 06:34:58;;;;;;;22.95;17.00;;;17.50;99.90;;;;;;5019421;28;20050;-76
2023/05/04 06:37:27;;;;;;;20.63;18.42;;;17.70;99.90;;;;;;5013716;28;20049;-73
2023/05/04 06:39:55;;;;;;;27.17;17.83;;;17.80;99.90;;;;;;5012648;28;20077;-73
2023/05/04 06:42:22;;;;;;;22.73;16.88;;;18.00;99.90;;;;;;5015264;28;20046;-75
2023/05/04 06:44:51;;;;;;;19.40;15.98;;;18.30;99.90;;;;;;4995010;28;20483;-73
2023/05/04 06:47:19;;;;;;;20.55;17.77;;;18.40;99.90;;;;;;5014079;28;20104;-78
2023/05/04 06:49:47;;;;;;;21.20;18.52;;;18.50;99.90;;;;;;4994178;28;20050;-75
2023/05/04 06:52:15;;;;;;;18.30;16.27;;;18.30;99.90;;;;;;4993599;28;20046;-74
2023/05/04 06:54:42;;;;;;;22.45;17.52;;;18.00;99.90;;;;;;5013609;28;20121;-73
2023/05/04 06:57:11;;;;;;;22.05;18.27;;;17.80;99.90;;;;;;5012630;28;20045;-73
2023/05/04 06:59:38;;;;;;;23.58;21.08;;;17.40;99.90;;;;;;5012600;28;20038;-75
2023/05/04 07:02:06;;;;;;;27.02;24.13;;;17.60;99.90;;;;;;5012082;28;20053;-73
2023/05/04 07:04:33;;;;;;;33.70;27.05;;;18.00;99.90;;;;;;5012679;28;20133;-74
2023/05/04 07:07:02;;;;;;;30.88;27.13;;;18.50;99.90;;;;;;4995537;28;20096;-74
2023/05/04 07:09:29;;;;;;;30.75;25.75;;;18.90;99.90;;;;;;5011917;28;20048;-75
2023/05/04 07:11:57;;;;;;;32.13;26.58;;;19.20;99.90;;;;;;5012225;28;20069;-75
2023/05/04 07:14:24;;;;;;;29.52;24.95;;;19.60;99.90;;;;;;5013069;28;20029;-73
2023/05/04 07:16:51;;;;;;;24.45;21.15;;;20.00;99.90;;;;;;5012521;28;20397;-74
2023/05/04 07:19:19;;;;;;;24.58;20.67;;;19.90;99.90;;;;;;5011846;28;20046;-73
2023/05/04 07:21:47;;;;;;;24.77;20.77;;;20.00;99.90;;;;;;5010783;28;20034;-73
2023/05/04 07:24:16;;;;;;;23.50;20.83;;;19.90;99.90;;;;;;5011865;28;20117;-73
2023/05/04 07:26:45;;;;;;;26.20;23.35;;;19.80;99.90;;;;;;5012754;28;20030;-74
2023/05/04 07:29:12;;;;;;;26.65;23.13;;;19.80;99.90;;;;;;5012992;28;20129;-74
2023/05/04 07:31:40;;;;;;;25.48;22.75;;;19.80;99.90;;;;;;5011976;28;20609;-74
2023/05/04 07:34:07;;;;;;;27.65;24.75;;;19.80;99.90;;;;;;5011178;28;20045;-74
2023/05/04 07:36:35;;;;;;;29.58;26.60;;;19.80;99.90;;;;;;5012142;28;20046;-75
2023/05/04 07:39:03;;;;;;;27.45;24.60;;;20.00;99.90;;;;;;5010720;28;20052;-75
2023/05/04 07:41:32;;;;;;;26.75;24.02;;;20.10;96.40;;;;;;5011518;28;20945;-75
2023/05/04 07:43:59;;;;;;;25.58;23.08;;;19.90;96.90;;;;;;5010969;28;20050;-74
2023/05/04 07:46:27;;;;;;;28.70;25.80;;;19.70;99.90;;;;;;5011300;28;20046;-74
2023/05/04 07:48:54;;;;;;;31.10;26.75;;;19.80;99.90;;;;;;5013280;28;20494;-74
2023/05/04 07:51:22;;;;;;;31.58;27.98;;;19.80;99.90;;;;;;5010967;28;20048;-73
2023/05/04 07:53:49;;;;;;;32.30;24.90;;;19.70;99.90;;;;;;5010549;28;20053;-75
2023/05/04 07:56:17;;;;;;;34.38;28.58;;;19.70;99.90;;;;;;5013525;28;20635;-75
2023/05/04 07:58:46;;;;;;;25.00;22.50;;;19.80;99.90;;;;;;5011597;28;20042;-73
2023/05/04 08:01:14;;;;;;;23.58;21.05;;;19.70;99.90;;;;;;5037197;23;20080;-77
2023/05/04 08:03:43;;;;;;;28.00;21.88;;;19.70;99.90;;;;;;5031176;28;20072;-75
2023/05/04 08:06:10;;;;;;;27.40;24.15;;;19.40;99.90;;;;;;5046964;28;21073;-76
2023/05/04 08:08:37;;;;;;;31.83;23.88;;;19.30;99.90;;;;;;5049734;28;20103;-76
2023/05/04 08:11:05;;;;;;;21.35;19.10;;;19.60;99.90;;;;;;5048745;28;20064;-75
2023/05/04 08:13:32;;;;;;;19.75;16.48;;;19.80;99.90;;;;;;5030296;28;20056;-76
2023/05/04 08:16:01;;;;;;;21.77;19.55;;;19.90;96.30;;;;;;5029773;28;20056;-76
2023/05/04 08:18:29;;;;;;;22.85;17.13;;;20.10;96.80;;;;;;5048689;28;20041;-76
2023/05/04 08:20:57;;;;;;;17.10;15.40;;;20.20;94.40;;;;;;5048651;28;20029;-76
2023/05/04 08:23:24;;;;;;;21.67;18.70;;;20.30;92.60;;;;;;5048864;28;20033;-76
2023/05/04 08:25:52;;;;;;;20.65;18.55;;;20.30;93.30;;;;;;5048370;28;20049;-75
2023/05/04 08:28:20;;;;;;;23.23;20.80;;;20.30;92.90;;;;;;5029998;28;20133;-75
2023/05/04 08:30:48;;;;;;;22.85;17.88;;;20.20;95.70;;;;;;5048492;28;20469;-76
2023/05/04 08:33:17;;;;;;;20.17;18.02;;;20.10;99.90;;;;;;5048424;28;20060;-76
2023/05/04 08:35:44;;;;;;;20.65;18.40;;;19.80;99.90;;;;;;5048478;28;20068;-76
2023/05/04 08:38:12;;;;;;;20.80;18.48;;;19.30;99.90;;;;;;5048526;28;20037;-76
2023/05/04 08:40:41;;;;;;;19.00;17.00;;;19.00;99.90;;;;;;5047650;28;20544;-75
2023/05/04 08:43:09;;;;;;;20.30;18.08;;;19.00;99.90;;;;;;5048545;28;20558;-76
2023/05/04 08:45:39;;;;;;;24.83;17.83;;;18.60;99.90;;;;;;5028743;28;20124;-76
2023/05/04 08:48:07;;;;;;;23.48;19.10;;;18.40;99.90;;;;;;5048156;28;20078;-76
2023/05/04 08:50:36;;;;;;;18.48;15.23;;;18.30;99.90;;;;;;5048133;28;20071;-75
2023/05/04 08:53:07;;;;;;;21.25;15.82;;;18.10;99.90;;;;;;5048506;28;20055;-76
2023/05/04 08:55:37;;;;;;;15.93;14.10;;;18.00;99.90;;;;;;5050039;28;20180;-76
2023/05/04 08:58:10;;;;;;;19.63;15.20;;;17.90;99.90;;;;;;5050096;28;20299;-76
2023/05/04 09:00:37;;;;;;;27.00;16.70;;;17.80;99.90;;;;;;5047324;28;20481;-77
2023/05/04 09:03:06;;;;;;;18.67;16.80;;;17.80;99.90;;;;;;5048950;28;20045;-76
2023/05/04 09:05:37;;;;;;;20.48;15.60;;;17.80;99.90;;;;;;5048602;28;20231;-76
2023/05/04 09:08:05;;;;;;;18.73;15.43;;;17.80;99.90;;;;;;5047471;28;20517;-76
2023/05/04 09:10:34;;;;;;;16.00;13.90;;;17.70;99.90;;;;;;5048804;28;20127;-75
2023/05/04 09:13:02;;;;;;;17.13;13.93;;;17.80;99.90;;;;;;5047955;28;20052;-77
2023/05/04 09:15:30;;;;;;;15.52;13.98;;;17.80;99.90;;;;;;5047259;28;20049;-75
2023/05/04 09:17:59;;;;;;;16.88;14.45;;;17.80;99.90;;;;;;5047345;28;20401;-76
2023/05/04 09:20:26;;;;;;;15.30;13.73;;;17.90;99.90;;;;;;5048547;28;20045;-76
2023/05/04 09:23:06;;;;;;;19.10;17.05;;;17.90;99.90;;;;;;5047698;28;20583;-77
2023/05/04 09:25:34;;;;;;;18.77;14.77;;;17.90;99.90;;;;;;5029569;28;20040;-76
2023/05/04 09:28:01;;;;;;;17.67;14.85;;;17.90;99.90;;;;;;5048160;28;20049;-78
2023/05/04 09:30:29;;;;;;;17.80;15.65;;;18.00;99.90;;;;;;5048278;28;20515;-75
2023/05/04 09:32:56;;;;;;;18.63;14.82;;;18.10;99.90;;;;;;5047228;28;20032;-75
2023/05/04 09:35:30;;;;;;;18.98;15.52;;;18.40;99.90;;;;;;5048763;28;20051;-77
2023/05/04 09:37:58;;;;;;;16.73;14.93;;;18.70;99.90;;;;;;5048018;28;20074;-76
2023/05/04 09:40:34;;;;;;;14.30;12.90;;;19.00;99.90;;;;;;5029984;28;20178;-76
2023/05/04 09:43:02;;;;;;;16.55;13.35;;;19.30;99.90;;;;;;5048403;28;20564;-76
2023/05/04 09:45:40;;;;;;;17.33;13.63;;;19.80;99.90;;;;;;5029134;28;20695;-77
2023/05/04 09:48:20;;;;;;;13.48;12.02;;;20.40;99.90;;;;;;5046392;28;20583;-78
2023/05/04 09:50:52;;;;;;;14.57;13.18;;;20.90;99.50;;;;;;5046663;28;20037;-76
2023/05/04 09:53:22;;;;;;;15.68;13.02;;;20.40;99.90;;;;;;5048117;28;20065;-77
2023/05/04 09:56:00;;;;;;;16.15;13.15;;;20.10;99.90;;;;;;5047055;28;20047;-76
2023/05/04 09:58:29;;;;;;;13.68;12.02;;;20.00;99.90;;;;;;5047408;28;20041;-75
2023/05/04 10:00:57;;;;;;;12.05;10.95;;;19.80;99.90;;;;;;5045947;28;20049;-76
2023/05/04 10:03:27;;;;;;;12.77;10.73;;;19.80;99.90;;;;;;5048166;28;20041;-76
2023/05/04 10:05:55;;;;;;;11.88;10.73;;;20.20;99.90;;;;;;5047224;28;20095;-76
2023/05/04 10:08:23;;;;;;;11.43;10.23;;;20.10;94.20;;;;;;5048876;28;20114;-77
2023/05/04 10:10:53;;;;;;;11.70;10.57;;;20.20;94.10;;;;;;5046331;28;20048;-76
2023/05/04 10:13:20;;;;;;;12.73;11.27;;;20.40;92.90;;;;;;5046537;28;20061;-74
2023/05/04 10:15:59;;;;;;;18.35;13.27;;;20.20;97.30;;;;;;5046970;28;20041;-76
2023/05/04 10:18:41;;;;;;;14.50;12.88;;;20.10;99.90;;;;;;5047494;28;20040;-75
2023/05/04 10:21:29;;;;;;;16.85;12.93;;;19.70;99.90;;;;;;5045661;28;20045;-76
2023/05/04 10:24:23;;;;;;;15.13;13.35;;;19.20;99.90;;;;;;5046918;28;20048;-76
2023/05/04 10:27:05;;;;;;;14.35;12.65;;;19.00;99.90;;;;;;5046301;28;20400;-76
2023/05/04 10:29:33;;;;;;;13.93;12.50;;;19.00;99.90;;;;;;5047266;28;20481;-75
2023/05/04 10:32:01;;;;;;;16.33;12.68;;;19.00;99.90;;;;;;5045644;28;20515;-76
2023/05/04 10:34:30;;;;;;;19.60;12.95;;;19.20;99.90;;;;;;5047484;28;20041;-76
2023/05/04 10:36:59;;;;;;;14.40;11.93;;;19.50;99.90;;;;;;5051494;28;20146;-86
2023/05/04 10:39:27;;;;;;;12.10;10.18;;;19.80;99.90;;;;;;5033497;28;20065;-76
2023/05/04 10:42:03;;;;;;;12.88;10.15;;;20.00;99.90;;;;;;5042235;28;20049;-83
2023/05/04 10:44:32;;;;;;;157.18;107.32;;;20.30;99.90;;;;;;5053000;28;20102;-84
2023/05/04 10:47:05;;;;;;;54.20;36.53;;;20.20;99.90;;;;;;5052457;28;20052;-81
2023/05/04 10:49:34;;;;;;;13.05;11.75;;;20.30;99.90;;;;;;5052675;28;20041;-88
2023/05/04 10:52:10;;;;;;;12.73;11.07;;;20.60;96.10;;;;;;5052925;28;20092;-88
2023/05/04 10:54:39;;;;;;;16.05;12.18;;;20.70;94.10;;;;;;5051520;28;20076;-76
2023/05/04 10:57:09;;;;;;;14.30;12.50;;;20.90;93.30;;;;;;5050264;28;20049;-76
2023/05/04 10:59:38;;;;;;;17.33;13.23;;;21.30;91.50;;;;;;5050431;28;20037;-76
2023/05/04 11:02:06;;;;;;;14.90;13.30;;;21.40;90.20;;;;;;5050372;28;20052;-76
2023/05/04 11:04:34;;;;;;;14.57;13.02;;;21.10;86.40;;;;;;5050160;28;20512;-77
2023/05/04 11:07:03;;;;;;;18.48;14.65;;;20.50;90.20;;;;;;5048552;28;20705;-77
2023/05/04 11:09:36;;;;;;;17.73;13.32;;;20.10;95.40;;;;;;5050519;28;20102;-76
2023/05/04 11:12:04;;;;;;;14.88;12.65;;;19.70;99.90;;;;;;5048834;28;20493;-75
2023/05/04 11:14:36;;;;;;;16.73;12.73;;;19.40;99.90;;;;;;5048657;28;20049;-75
2023/05/04 11:17:07;;;;;;;13.85;12.32;;;19.00;99.90;;;;;;5048982;28;20037;-76
2023/05/04 11:19:35;;;;;;;17.88;15.77;;;18.50;99.90;;;;;;5050315;28;20746;-76
2023/05/04 11:22:03;;;;;;;19.92;16.80;;;18.00;99.90;;;;;;5048685;28;20737;-76
2023/05/04 11:24:43;;;;;;;22.23;19.92;;;17.20;99.90;;;;;;5050735;28;20037;-76
2023/05/04 11:27:21;;;;;;;27.85;23.15;;;16.60;99.90;;;;;;5049692;28;20323;-77
2023/05/04 11:30:01;;;;;;;27.60;24.88;;;16.20;99.90;;;;;;5049915;28;20045;-76
2023/05/04 11:32:36;;;;;;;30.92;27.70;;;16.00;99.90;;;;;;5049824;28;20044;-76
2023/05/04 11:35:03;;;;;;;28.20;25.48;;;16.10;99.90;;;;;;5051013;28;20045;-77
2023/05/04 11:37:37;;;;;;;26.30;23.52;;;16.30;99.90;;;;;;5030209;28;20402;-76
2023/05/04 11:40:09;;;;;;;28.40;25.60;;;16.40;99.90;;;;;;5050211;28;20044;-77
2023/05/04 11:42:38;;;;;;;28.65;25.95;;;16.50;99.90;;;;;;5048219;28;20041;-76
2023/05/04 11:45:10;;;;;;;26.27;23.70;;;16.80;99.90;;;;;;5047864;28;20033;-76
2023/05/04 11:47:38;;;;;;;21.50;19.20;;;17.00;99.90;;;;;;5049117;28;20051;-76
2023/05/04 11:50:10;;;;;;;17.20;15.48;;;17.20;99.90;;;;;;5049232;28;20071;-76
2023/05/04 11:52:39;;;;;;;16.40;14.10;;;17.60;99.90;;;;;;5047531;28;20285;-76
2023/05/04 11:55:08;;;;;;;14.43;13.02;;;17.80;99.90;;;;;;5048843;28;20041;-77
2023/05/04 11:57:37;;;;;;;19.23;13.65;;;18.10;99.90;;;;;;5048662;28;20041;-76
2023/05/04 12:00:05;;;;;;;12.55;11.07;;;18.30;99.90;;;;;;5048811;28;20045;-76
2023/05/04 12:02:35;;;;;;;11.70;10.60;;;18.50;99.90;;;;;;5049763;28;20047;-76
2023/05/04 12:05:03;;;;;;;15.45;12.30;;;18.50;99.90;;;;;;5030955;28;20068;-76
2023/05/04 12:07:36;;;;;;;12.65;11.45;;;18.50;99.90;;;;;;5030909;28;20086;-76
2023/05/04 12:10:04;;;;;;;12.35;10.88;;;18.40;99.90;;;;;;5050408;28;20106;-77
2023/05/04 12:12:35;;;;;;;11.75;10.50;;;18.60;99.90;;;;;;5031039;28;20574;-77
2023/05/04 12:15:03;;;;;;;13.95;9.80;;;18.80;99.90;;;;;;5047486;28;20098;-76
2023/05/04 12:17:41;;;;;;;11.45;10.25;;;18.70;99.90;;;;;;5049343;28;20136;-75
2023/05/04 12:20:09;;;;;;;12.05;10.77;;;18.90;99.90;;;;;;5047354;28;20079;-75
2023/05/04 12:22:37;;;;;;;12.20;10.88;;;19.00;99.90;;;;;;5046649;28;20072;-77
2023/05/04 12:25:05;;;;;;;12.20;10.48;;;19.20;99.90;;;;;;5048820;28;20048;-76
2023/05/04 12:27:33;;;;;;;14.25;10.27;;;19.60;99.90;;;;;;5049077;28;20124;-76
2023/05/04 12:30:00;;;;;;;10.43;9.45;;;20.00;99.90;;;;;;5029865;28;20045;-76
2023/05/04 12:32:28;;;;;;;14.27;10.02;;;20.00;99.90;;;;;;5030508;28;20044;-76
2023/05/04 12:34:56;;;;;;;9.90;8.93;;;20.00;99.90;;;;;;5048831;28;20037;-77
2023/05/04 12:37:24;;;;;;;9.13;8.23;;;19.90;99.90;;;;;;5048647;28;20045;-75